createdAt,value
2022-08-07T00:00:39.937Z,9.90
2022-08-07T00:03:09.052Z,9.80
2022-08-07T00:05:37.298Z,9.73
2022-08-07T00:08:07.767Z,10.10
2022-08-07T00:10:48.206Z,12.47
2022-08-07T00:13:26.658Z,9.93
2022-08-07T00:15:55.312Z,14.00
2022-08-07T00:18:25.239Z,10.30
2022-08-07T00:20:54.931Z,10.63
2022-08-07T00:23:24.844Z,10.67
2022-08-07T00:26:00.140Z,11.50
2022-08-07T00:28:33.975Z,11.50
2022-08-07T00:31:05.942Z,12.73
2022-08-07T00:33:35.086Z,10.50
2022-08-07T00:36:03.705Z,10.47
2022-08-07T00:38:33.289Z,10.33
2022-08-07T00:41:03.577Z,11.77
2022-08-07T00:44:01.684Z,12.43
2022-08-07T00:46:20.237Z,11.03
2022-08-07T00:48:51.729Z,11.37
2022-08-07T00:51:19.880Z,12.37
2022-08-07T00:53:50.834Z,12.03
2022-08-07T00:56:30.162Z,11.50
2022-08-07T00:58:58.613Z,13.10
2022-08-07T01:01:26.922Z,11.73
2022-08-07T01:04:00.356Z,11.27
2022-08-07T01:06:29.739Z,11.73
2022-08-07T01:09:01.063Z,10.93
2022-08-07T01:12:09.224Z,10.97
2022-08-07T01:14:21.337Z,11.33
2022-08-07T01:16:56.917Z,11.73
2022-08-07T01:19:27.430Z,11.40
2022-08-07T01:22:03.299Z,10.93
2022-08-07T01:24:32.024Z,11.17
2022-08-07T01:27:01.424Z,11.63
2022-08-07T01:29:33.921Z,13.37
2022-08-07T01:32:05.186Z,11.27
2022-08-07T01:34:34.517Z,11.70
2022-08-07T01:37:04.268Z,11.97
2022-08-07T01:39:40.360Z,11.60
2022-08-07T01:42:38.114Z,11.80
2022-08-07T01:45:04.675Z,14.17
2022-08-07T01:48:20.892Z,12.70
2022-08-07T01:50:28.909Z,11.73
2022-08-07T01:53:00.358Z,13.03
2022-08-07T01:55:33.328Z,12.37
2022-08-07T01:58:27.242Z,12.50
2022-08-07T02:01:25.418Z,11.83
2022-08-07T02:03:52.119Z,11.90
2022-08-07T02:06:31.294Z,13.77
2022-08-07T02:09:04.351Z,12.30
2022-08-07T02:12:04.139Z,13.80
2022-08-07T02:14:40.159Z,14.07
2022-08-07T02:17:11.092Z,11.97
2022-08-07T02:20:07.835Z,11.57
2022-08-07T02:22:31.728Z,11.23
2022-08-07T02:25:01.803Z,11.17
2022-08-07T02:27:36.509Z,11.07
2022-08-07T02:30:10.768Z,10.67
2022-08-07T02:33:08.893Z,11.97
2022-08-07T02:36:28.166Z,12.93
2022-08-07T02:38:28.116Z,12.90
2022-08-07T02:41:04.055Z,10.90
2022-08-07T02:43:33.214Z,11.33
2022-08-07T02:46:03.668Z,11.60
2022-08-07T02:48:31.906Z,12.30
2022-08-07T02:51:04.407Z,11.47
2022-08-07T02:53:38.552Z,10.50
2022-08-07T02:56:20.963Z,11.83
2022-08-07T02:58:54.253Z,12.07
2022-08-07T03:01:36.380Z,10.60
2022-08-07T03:04:07.821Z,11.93
2022-08-07T03:06:44.722Z,11.40
2022-08-07T03:09:14.979Z,11.53
2022-08-07T03:12:06.626Z,12.17
2022-08-07T03:14:37.397Z,10.60
2022-08-07T03:17:08.715Z,10.70
2022-08-07T03:19:37.600Z,13.03
2022-08-07T03:22:07.104Z,11.93
2022-08-07T03:24:36.646Z,11.27
2022-08-07T03:27:08.945Z,11.80
2022-08-07T03:29:46.277Z,10.97
2022-08-07T03:32:20.246Z,10.67
2022-08-07T03:35:16.583Z,11.57
2022-08-07T03:37:46.289Z,13.30
2022-08-07T03:40:22.774Z,12.77
2022-08-07T03:42:53.285Z,12.00
2022-08-07T03:45:29.987Z,12.53
2022-08-07T03:47:59.955Z,12.17
2022-08-07T03:50:29.180Z,11.27
2022-08-07T03:52:59.775Z,12.80
2022-08-07T03:55:52.772Z,13.53
2022-08-07T03:59:06.751Z,13.67
2022-08-07T04:01:11.706Z,11.10
2022-08-07T04:03:53.465Z,11.30
2022-08-07T04:06:37.224Z,11.53
2022-08-07T04:09:08.544Z,11.10
2022-08-07T04:12:26.859Z,12.33
2022-08-07T04:14:38.566Z,11.73
2022-08-07T04:17:20.066Z,11.40
2022-08-07T04:20:01.149Z,11.07
2022-08-07T04:22:30.073Z,10.60
2022-08-07T04:25:01.032Z,10.90
2022-08-07T04:27:35.882Z,11.80
2022-08-07T04:30:21.685Z,13.33
2022-08-07T04:32:58.849Z,11.80
2022-08-07T04:35:27.044Z,11.07
2022-08-07T04:38:03.368Z,11.70
2022-08-07T04:40:34.884Z,12.87
2022-08-07T04:43:03.524Z,12.23
2022-08-07T04:45:57.466Z,11.57
2022-08-07T04:48:36.705Z,12.53
2022-08-07T04:51:09.832Z,12.90
2022-08-07T04:54:05.683Z,12.87
2022-08-07T04:58:09.705Z,13.00
2022-08-07T05:00:11.304Z,12.40
2022-08-07T05:02:30.671Z,11.67
2022-08-07T05:05:11.526Z,12.83
2022-08-07T05:07:58.005Z,11.53
2022-08-07T05:10:32.011Z,12.70
2022-08-07T05:14:44.461Z,12.53
2022-08-07T05:15:57.559Z,12.37
2022-08-07T05:18:30.628Z,12.33
2022-08-07T05:21:03.841Z,12.63
2022-08-07T05:23:37.446Z,11.97
2022-08-07T05:26:11.551Z,15.77
2022-08-07T05:28:49.944Z,12.43
2022-08-07T05:31:19.753Z,12.97
2022-08-07T05:33:51.272Z,12.63
2022-08-07T05:36:35.412Z,12.90
2022-08-07T05:40:07.039Z,12.60
2022-08-07T05:42:01.044Z,13.00
2022-08-07T05:44:36.614Z,12.93
2022-08-07T05:47:11.765Z,13.50
2022-08-07T05:49:50.390Z,11.87
2022-08-07T05:52:20.349Z,16.13
2022-08-07T05:54:55.352Z,14.70
2022-08-07T05:57:30.031Z,12.07
2022-08-07T06:00:01.288Z,12.50
2022-08-07T06:02:32.580Z,12.60
2022-08-07T06:05:07.141Z,14.33
2022-08-07T06:08:13.790Z,14.77
2022-08-07T06:10:25.099Z,11.37
2022-08-07T06:12:53.133Z,13.40
2022-08-07T06:15:41.884Z,14.13
2022-08-07T06:18:13.994Z,11.40
2022-08-07T06:20:50.804Z,10.57
2022-08-07T06:24:37.936Z,11.37
2022-08-07T06:26:27.610Z,11.17
2022-08-07T06:28:59.761Z,11.77
2022-08-07T06:31:46.692Z,16.00
2022-08-07T06:34:20.530Z,13.43
2022-08-07T06:36:51.993Z,13.03
2022-08-07T06:40:15.819Z,11.83
2022-08-07T06:42:12.472Z,10.70
2022-08-07T06:44:43.341Z,10.23
2022-08-07T06:47:15.631Z,10.77
2022-08-07T06:49:51.920Z,11.07
2022-08-07T06:52:31.429Z,9.10
2022-08-07T06:55:32.526Z,10.47
2022-08-07T06:57:57.528Z,8.33
2022-08-07T07:00:29.136Z,7.93
2022-08-07T07:03:01.378Z,8.13
2022-08-07T07:06:03.376Z,6.47
2022-08-07T07:08:30.873Z,6.03
2022-08-07T07:11:00.915Z,5.88
2022-08-07T07:13:56.672Z,7.85
2022-08-07T07:16:30.406Z,9.32
2022-08-07T07:19:11.395Z,5.97
2022-08-07T07:22:12.065Z,5.00
2022-08-07T07:24:58.346Z,5.40
2022-08-07T07:27:56.368Z,5.53
2022-08-07T07:30:37.958Z,6.82
2022-08-07T07:33:07.747Z,5.13
2022-08-07T07:35:44.119Z,7.50
2022-08-07T07:38:26.602Z,6.72
2022-08-07T07:41:02.593Z,4.93
2022-08-07T07:44:14.637Z,5.15
2022-08-07T07:46:39.852Z,4.82
2022-08-07T07:50:33.160Z,5.57
2022-08-07T07:52:06.257Z,4.88
2022-08-07T07:54:37.057Z,5.30
2022-08-07T07:57:08.619Z,8.73
2022-08-07T07:59:51.984Z,5.55
2022-08-07T08:02:33.950Z,5.15
2022-08-07T08:05:11.526Z,5.22
2022-08-07T08:08:00.083Z,6.95
2022-08-07T08:10:35.654Z,5.43
2022-08-07T08:13:10.611Z,4.82
2022-08-07T08:15:57.697Z,5.10
2022-08-07T08:18:30.067Z,6.30
2022-08-07T08:21:01.463Z,5.65
2022-08-07T08:23:49.399Z,5.05
2022-08-07T08:26:35.915Z,4.25
2022-08-07T08:29:06.299Z,5.65
2022-08-07T08:32:04.851Z,4.95
2022-08-07T08:34:29.684Z,5.57
2022-08-07T08:36:58.762Z,6.45
2022-08-07T08:39:39.848Z,5.07
2022-08-07T08:42:25.712Z,4.57
2022-08-07T08:45:04.497Z,4.72
2022-08-07T08:47:47.418Z,4.20
2022-08-07T08:50:34.881Z,4.47
2022-08-07T08:53:16.663Z,7.72
2022-08-07T08:55:54.372Z,4.70
2022-08-07T08:58:36.128Z,4.57
2022-08-07T09:01:15.008Z,4.40
2022-08-07T09:03:55.294Z,4.38
2022-08-07T09:06:36.894Z,5.88
2022-08-07T09:09:20.942Z,5.63
2022-08-07T09:12:08.971Z,5.95
2022-08-07T09:16:25.455Z,4.50
2022-08-07T09:18:15.686Z,4.47
2022-08-07T09:20:58.027Z,4.80
2022-08-07T09:24:31.835Z,4.82
2022-08-07T09:26:30.372Z,5.60
2022-08-07T09:30:01.672Z,5.32
2022-08-07T09:32:00.655Z,5.70
2022-08-07T09:34:37.388Z,5.20
2022-08-07T09:37:12.842Z,6.18
2022-08-07T09:39:57.844Z,5.75
2022-08-07T09:42:42.526Z,7.68
2022-08-07T09:47:52.191Z,8.20
2022-08-07T09:48:18.992Z,5.95
2022-08-07T09:51:01.116Z,9.70
2022-08-07T09:53:41.256Z,5.70
2022-08-07T09:56:41.830Z,5.72
2022-08-07T09:59:37.056Z,7.05
2022-08-07T10:02:34.913Z,6.50
2022-08-07T10:05:59.461Z,5.40
2022-08-07T10:08:45.319Z,5.85
2022-08-07T10:12:01.661Z,5.95
2022-08-07T10:14:55.218Z,5.55
2022-08-07T10:18:00.261Z,5.15
2022-08-07T10:20:39.423Z,5.35
2022-08-07T10:24:06.372Z,5.38
2022-08-07T10:26:30.401Z,5.18
2022-08-07T10:29:14.838Z,5.30
2022-08-07T10:32:01.053Z,4.43
2022-08-07T10:34:41.447Z,4.70
2022-08-07T10:37:26.591Z,6.65
2022-08-07T10:40:20.949Z,4.85
2022-08-07T10:42:59.695Z,7.20
2022-08-07T10:45:44.626Z,4.97
2022-08-07T10:48:34.576Z,5.93
2022-08-07T10:51:16.831Z,6.55
2022-08-07T10:54:07.950Z,6.70
2022-08-07T10:56:47.469Z,5.57
2022-08-07T10:59:30.356Z,5.13
2022-08-07T11:02:11.810Z,4.90
2022-08-07T11:05:03.169Z,4.55
2022-08-07T11:08:00.284Z,4.00
2022-08-07T11:10:37.264Z,4.20
2022-08-07T11:13:16.763Z,4.43
2022-08-07T11:16:09.689Z,5.93
2022-08-07T11:18:42.292Z,5.32
2022-08-07T11:21:18.829Z,5.20
2022-08-07T11:23:55.268Z,4.43
2022-08-07T11:26:29.399Z,4.10
2022-08-07T11:29:05.735Z,5.15
2022-08-07T11:31:51.860Z,5.40
2022-08-07T11:34:25.524Z,4.30
2022-08-07T11:37:03.852Z,4.53
2022-08-07T11:39:59.261Z,4.70
2022-08-07T11:42:40.097Z,4.78
2022-08-07T11:45:23.716Z,4.75
2022-08-07T11:48:29.706Z,4.18
2022-08-07T11:51:41.520Z,4.63
2022-08-07T11:54:36.856Z,4.30
2022-08-07T11:57:18.914Z,4.35
2022-08-07T12:00:11.298Z,5.07
2022-08-07T12:03:41.510Z,4.53
2022-08-07T12:06:38.882Z,4.82
2022-08-07T12:09:16.462Z,4.22
2022-08-07T12:12:09.501Z,4.43
2022-08-07T12:14:53.791Z,4.50
2022-08-07T12:17:35.571Z,4.30
2022-08-07T12:20:20.955Z,4.30
2022-08-07T12:23:17.898Z,4.53
2022-08-07T12:26:05.623Z,4.38
2022-08-07T12:28:53.178Z,4.60
2022-08-07T12:31:53.272Z,3.97
2022-08-07T12:34:21.168Z,4.18
2022-08-07T12:36:53.529Z,4.40
2022-08-07T12:39:43.916Z,4.88
2022-08-07T12:42:16.240Z,6.45
2022-08-07T12:44:48.527Z,3.92
2022-08-07T12:47:30.519Z,4.53
2022-08-07T12:50:39.537Z,6.43
2022-08-07T12:53:01.148Z,4.45
2022-08-07T12:55:40.825Z,8.60
2022-08-07T12:58:13.131Z,16.88
2022-08-07T13:00:51.602Z,14.15
2022-08-07T13:03:56.248Z,6.28
2022-08-07T13:07:00.637Z,5.82
2022-08-07T13:10:18.963Z,6.45
2022-08-07T13:12:52.240Z,5.97
2022-08-07T13:15:31.868Z,37.33
2022-08-07T13:18:26.351Z,5.38
2022-08-07T13:21:00.804Z,9.27
2022-08-07T13:24:01.020Z,4.78
2022-08-07T13:26:32.537Z,6.13
2022-08-07T13:29:10.988Z,5.85
2022-08-07T13:31:57.327Z,4.35
2022-08-07T13:34:39.346Z,5.00
2022-08-07T13:37:25.848Z,11.95
2022-08-07T13:40:35.265Z,5.25
2022-08-07T13:42:59.291Z,6.57
2022-08-07T13:46:20.770Z,5.97
2022-08-07T13:48:33.807Z,6.93
2022-08-07T13:51:27.616Z,16.45
2022-08-07T13:54:00.367Z,5.82
2022-08-07T13:56:35.602Z,8.30
2022-08-07T13:59:12.839Z,8.30
2022-08-07T14:01:51.034Z,10.20
2022-08-07T14:04:29.737Z,5.57
2022-08-07T14:07:09.516Z,4.30
2022-08-07T14:10:17.713Z,7.80
2022-08-07T14:12:41.941Z,6.78
2022-08-07T14:15:28.186Z,5.22
2022-08-07T14:18:24.163Z,5.57
2022-08-07T14:21:00.233Z,5.00
2022-08-07T14:23:59.933Z,14.35
2022-08-07T14:26:32.504Z,6.07
2022-08-07T14:30:02.915Z,5.45
2022-08-07T14:31:57.866Z,10.30
2022-08-07T14:34:30.875Z,9.38
2022-08-07T14:37:03.133Z,9.18
2022-08-07T14:40:18.045Z,8.98
2022-08-07T14:42:26.229Z,8.25
2022-08-07T14:44:59.917Z,6.57
2022-08-07T14:47:47.712Z,17.45
2022-08-07T14:50:20.483Z,8.90
2022-08-07T14:52:50.233Z,7.60
2022-08-07T14:55:19.416Z,5.85
2022-08-07T14:57:55.221Z,6.10
2022-08-07T15:00:40.584Z,5.65
2022-08-07T15:06:03.805Z,7.20
2022-08-07T15:08:35.077Z,8.52
2022-08-07T15:11:54.080Z,5.75
2022-08-07T15:14:10.992Z,6.20
2022-08-07T15:16:54.501Z,5.35
2022-08-07T15:20:16.164Z,4.22
2022-08-07T15:22:31.059Z,5.65
2022-08-07T15:28:26.545Z,5.18
2022-08-07T15:31:04.739Z,4.72
2022-08-07T15:33:35.983Z,8.40
2022-08-07T15:36:07.757Z,5.80
2022-08-07T15:38:51.784Z,4.63
2022-08-07T15:42:43.603Z,4.50
2022-08-07T15:44:23.835Z,4.03
2022-08-07T15:46:57.843Z,4.63
2022-08-07T15:50:05.660Z,4.85
2022-08-07T15:52:30.634Z,4.50
2022-08-07T15:55:04.243Z,4.10
2022-08-07T15:57:47.398Z,8.73
2022-08-07T16:00:31.564Z,9.93
2022-08-07T16:03:05.768Z,4.95
2022-08-07T16:05:36.153Z,5.40
2022-08-07T16:08:32.013Z,4.63
2022-08-07T16:11:04.352Z,4.75
2022-08-07T16:14:10.611Z,4.15
2022-08-07T16:16:56.760Z,3.92
2022-08-07T16:19:59.133Z,3.70
2022-08-07T16:22:55.765Z,4.28
2022-08-07T16:25:55.425Z,4.43
2022-08-07T16:30:08.534Z,5.15
2022-08-07T16:31:50.797Z,5.95
2022-08-07T16:34:34.296Z,5.15
2022-08-07T16:38:05.714Z,8.15
2022-08-07T16:41:01.502Z,4.43
2022-08-07T16:44:03.674Z,5.80
2022-08-07T16:47:05.985Z,4.32
2022-08-07T16:50:20.231Z,6.95
2022-08-07T16:54:02.638Z,4.95
2022-08-07T16:56:20.092Z,4.18
2022-08-07T16:59:14.265Z,4.93
2022-08-07T17:01:57.249Z,4.30
2022-08-07T17:04:37.011Z,4.35
2022-08-07T17:07:28.233Z,4.22
2022-08-07T17:10:32.220Z,6.47
2022-08-07T17:13:17.881Z,3.83
2022-08-07T17:15:53.903Z,4.05
2022-08-07T17:18:32.232Z,4.03
2022-08-07T17:21:02.918Z,3.90
2022-08-07T17:23:58.005Z,5.03
2022-08-07T17:26:48.149Z,3.78
2022-08-07T17:30:15.973Z,4.20
2022-08-07T17:32:30.687Z,4.55
2022-08-07T17:35:51.604Z,4.55
2022-08-07T17:38:33.129Z,3.90
2022-08-07T17:42:00.940Z,3.50
2022-08-07T17:44:02.876Z,3.90
2022-08-07T17:46:41.643Z,7.35
2022-08-07T17:49:23.137Z,5.25
2022-08-07T17:52:00.335Z,4.80
2022-08-07T17:54:54.102Z,4.03
2022-08-07T17:57:56.345Z,3.90
2022-08-07T18:00:27.576Z,3.78
2022-08-07T18:03:18.488Z,3.92
2022-08-07T18:06:02.209Z,4.10
2022-08-07T18:08:35.399Z,4.30
2022-08-07T18:12:07.996Z,3.85
2022-08-07T18:14:06.706Z,4.60
2022-08-07T18:16:37.356Z,3.97
2022-08-07T18:21:10.555Z,6.65
2022-08-07T18:22:29.647Z,4.97
2022-08-07T18:25:19.033Z,3.90
2022-08-07T18:28:09.458Z,3.22
2022-08-07T18:30:50.855Z,3.70
2022-08-07T18:33:55.749Z,5.10
2022-08-07T18:36:33.793Z,4.38
2022-08-07T18:40:08.307Z,4.72
2022-08-07T18:42:13.362Z,4.88
2022-08-07T18:45:45.075Z,5.70
2022-08-07T18:48:00.986Z,5.63
2022-08-07T18:50:46.518Z,6.00
2022-08-07T18:53:36.941Z,7.47
2022-08-07T18:56:15.065Z,5.82
2022-08-07T18:59:47.115Z,5.30
2022-08-07T19:02:31.729Z,5.28
2022-08-07T19:05:14.954Z,4.95
2022-08-07T19:07:58.029Z,5.07
2022-08-07T19:10:51.835Z,10.32
2022-08-07T19:13:25.367Z,5.97
2022-08-07T19:17:00.832Z,6.07
2022-08-07T19:19:01.228Z,5.20
2022-08-07T19:21:47.802Z,4.78
2022-08-07T19:24:35.269Z,5.18
2022-08-07T19:28:56.655Z,7.07
2022-08-07T19:31:04.231Z,6.00
2022-08-07T19:32:59.263Z,4.97
2022-08-07T19:35:33.191Z,5.68
2022-08-07T19:38:03.651Z,6.85
2022-08-07T19:40:50.317Z,5.35
2022-08-07T19:43:43.990Z,5.43
2022-08-07T19:46:12.099Z,5.18
2022-08-07T19:48:44.795Z,5.18
2022-08-07T19:51:52.839Z,4.82
2022-08-07T19:54:34.444Z,6.22
2022-08-07T19:58:01.571Z,5.75
2022-08-07T19:59:59.520Z,9.10
2022-08-07T20:02:32.586Z,5.43
2022-08-07T20:05:07.743Z,4.95
2022-08-07T20:07:46.496Z,6.78
2022-08-07T20:10:35.951Z,5.85
2022-08-07T20:13:22.985Z,5.00
2022-08-07T20:15:53.959Z,5.72
2022-08-07T20:18:33.808Z,5.22
2022-08-07T20:21:21.063Z,5.72
2022-08-07T20:23:54.273Z,5.05
2022-08-07T20:26:29.886Z,9.20
2022-08-07T20:29:10.704Z,5.28
2022-08-07T20:31:52.605Z,5.60
2022-08-07T20:34:49.355Z,8.20
2022-08-07T20:37:16.097Z,6.88
2022-08-07T20:40:04.275Z,5.63
2022-08-07T20:42:35.719Z,6.17
2022-08-07T20:45:33.371Z,6.32
2022-08-07T20:47:58.561Z,6.07
2022-08-07T20:50:30.585Z,5.50
2022-08-07T20:53:00.900Z,5.10
2022-08-07T20:55:31.938Z,5.78
2022-08-07T20:58:08.882Z,5.47
2022-08-07T21:00:44.393Z,5.57
2022-08-07T21:03:15.588Z,7.40
2022-08-07T21:05:55.982Z,5.57
2022-08-07T21:08:36.702Z,5.40
2022-08-07T21:11:10.816Z,6.93
2022-08-07T21:14:16.325Z,5.73
2022-08-07T21:16:56.274Z,6.03
2022-08-07T21:19:32.094Z,6.60
2022-08-07T21:22:19.530Z,6.53
2022-08-07T21:25:11.682Z,7.57
2022-08-07T21:28:02.181Z,7.77
2022-08-07T21:30:48.120Z,8.50
2022-08-07T21:33:22.722Z,8.23
2022-08-07T21:36:06.033Z,7.30
2022-08-07T21:38:49.944Z,7.90
2022-08-07T21:41:28.351Z,8.53
2022-08-07T21:44:14.597Z,6.87
2022-08-07T21:47:01.061Z,7.50
2022-08-07T21:49:40.812Z,8.53
2022-08-07T21:52:33.943Z,8.10
2022-08-07T21:55:11.225Z,8.83
2022-08-07T21:57:52.842Z,9.73
2022-08-07T22:00:25.268Z,9.80
2022-08-07T22:03:07.769Z,9.13
2022-08-07T22:05:48.226Z,8.47
2022-08-07T22:08:20.936Z,7.73
2022-08-07T22:10:50.993Z,10.93
2022-08-07T22:13:24.631Z,8.03
2022-08-07T22:16:42.255Z,7.50
2022-08-07T22:19:09.672Z,6.47
2022-08-07T22:22:04.641Z,7.93
2022-08-07T22:24:35.728Z,7.00
2022-08-07T22:27:10.322Z,5.80
2022-08-07T22:29:50.216Z,6.57
2022-08-07T22:32:26.298Z,6.53
2022-08-07T22:34:56.183Z,7.03
2022-08-07T22:38:02.852Z,6.83
2022-08-07T22:40:29.643Z,6.53
2022-08-07T22:43:04.311Z,6.63
2022-08-07T22:46:40.901Z,8.67
2022-08-07T22:48:55.345Z,8.03
2022-08-07T22:51:54.193Z,6.60
2022-08-07T22:54:48.746Z,6.83
2022-08-07T22:57:37.347Z,9.20
2022-08-07T23:00:16.030Z,7.00
2022-08-07T23:03:03.670Z,7.53
2022-08-07T23:06:06.895Z,7.13
2022-08-07T23:10:04.111Z,7.37
2022-08-07T23:12:20.973Z,7.00
2022-08-07T23:16:04.884Z,6.93
2022-08-07T23:18:25.850Z,7.87
2022-08-07T23:21:06.920Z,7.90
2022-08-07T23:24:06.357Z,6.73
2022-08-07T23:27:03.897Z,6.97
2022-08-07T23:30:36.031Z,6.67
2022-08-07T23:34:36.480Z,5.70
2022-08-07T23:35:55.767Z,7.13
2022-08-07T23:38:36.856Z,8.27
2022-08-07T23:41:33.555Z,5.60
2022-08-07T23:44:29.464Z,8.43
2022-08-07T23:47:21.223Z,6.43
2022-08-07T23:50:16.370Z,8.03
2022-08-07T23:53:02.038Z,7.73
2022-08-07T23:55:47.049Z,7.00
2022-08-07T23:58:27.135Z,6.53
